createdAt,value
2018-02-20T00:00:03.657Z,38.5
2018-02-20T00:01:03.291Z,38.4
2018-02-20T00:02:03.085Z,38.5
2018-02-20T00:03:02.920Z,38.4
2018-02-20T00:04:02.815Z,38.5
2018-02-20T00:05:02.729Z,38.5
2018-02-20T00:06:03.045Z,38.6
2018-02-20T00:07:03.123Z,38.5
2018-02-20T00:08:02.705Z,38.5
2018-02-20T00:09:02.888Z,38.6
2018-02-20T00:10:02.797Z,38.6
2018-02-20T00:11:02.606Z,38.6
2018-02-20T00:12:02.827Z,38.6
2018-02-20T00:13:02.403Z,38.6
2018-02-20T00:14:02.029Z,38.6
2018-02-20T00:15:02.186Z,38.6
2018-02-20T00:16:02.256Z,38.6
2018-02-20T00:17:02.151Z,38.6
2018-02-20T00:18:02.284Z,38.7
2018-02-20T00:19:01.795Z,38.7
2018-02-20T00:20:01.646Z,38.7
2018-02-20T00:21:01.932Z,38.7
2018-02-20T00:22:01.887Z,38.7
2018-02-20T00:23:01.776Z,38.6
2018-02-20T00:24:01.417Z,38.6
2018-02-20T00:25:01.825Z,38.6
2018-02-20T00:26:01.291Z,38.7
2018-02-20T00:27:01.790Z,38.8
2018-02-20T00:28:01.248Z,38.8
2018-02-20T00:29:01.016Z,38.8
2018-02-20T00:30:01.061Z,38.7
2018-02-20T00:31:01.197Z,38.7
2018-02-20T00:32:01.070Z,38.7
2018-02-20T00:33:01.245Z,38.7
2018-02-20T00:34:01.097Z,38.6
2018-02-20T00:35:00.935Z,38.6
2018-02-20T00:36:00.794Z,38.6
2018-02-20T00:37:00.699Z,38.7
2018-02-20T00:38:00.883Z,38.8
2018-02-20T00:39:00.240Z,38.7
2018-02-20T00:40:00.288Z,38.7
2018-02-20T00:41:00.548Z,38.7
2018-02-20T00:42:00.600Z,38.8
2018-02-20T00:43:00.181Z,38.7
2018-02-20T00:44:00.382Z,38.6
2018-02-20T00:45:00.473Z,38.6
2018-02-20T00:46:00.221Z,38.5
2018-02-20T00:46:59.960Z,38.4
2018-02-20T00:48:00.755Z,38.5
2018-02-20T00:48:59.940Z,38.6
2018-02-20T00:49:59.604Z,38.6
2018-02-20T00:50:59.692Z,38.6
2018-02-20T00:51:59.966Z,38.6
2018-02-20T00:52:59.635Z,38.5
2018-02-20T00:53:59.728Z,38.4
2018-02-20T00:54:59.514Z,38.4
2018-02-20T00:55:59.186Z,38.4
2018-02-20T00:56:59.580Z,38.4
2018-02-20T00:57:59.664Z,38.6
2018-02-20T00:58:59.075Z,38.6
2018-02-20T00:59:59.072Z,38.6
2018-02-20T01:00:58.881Z,38.6
2018-02-20T01:01:58.692Z,38.6
2018-02-20T01:02:58.787Z,38.6
2018-02-20T01:03:58.990Z,38.7
2018-02-20T01:04:58.920Z,38.7
2018-02-20T01:05:58.775Z,38.7
2018-02-20T01:06:59.300Z,38.6
2018-02-20T01:07:59.424Z,38.6
2018-02-20T01:08:58.258Z,38.6
2018-02-20T01:09:58.832Z,38.7
2018-02-20T01:10:58.353Z,38.6
2018-02-20T01:11:58.073Z,38.6
2018-02-20T01:12:58.047Z,38.5
2018-02-20T01:13:58.039Z,38.5
2018-02-20T01:14:57.751Z,38.5
2018-02-20T01:15:58.078Z,38.5
2018-02-20T01:16:57.785Z,38.5
2018-02-20T01:17:58.578Z,38.5
2018-02-20T01:18:58.023Z,38.6
2018-02-20T01:19:58.134Z,38.6
2018-02-20T01:20:57.650Z,38.6
2018-02-20T01:21:57.490Z,38.5
2018-02-20T01:22:57.544Z,38.5
2018-02-20T01:23:57.454Z,38.5
2018-02-20T01:24:57.923Z,38.6
2018-02-20T01:25:57.476Z,38.6
2018-02-20T01:26:57.657Z,38.6
2018-02-20T01:27:56.968Z,38.6
2018-02-20T01:28:57.055Z,38.6
2018-02-20T01:29:56.820Z,38.6
2018-02-20T01:30:57.351Z,38.6
2018-02-20T01:31:56.851Z,38.6
2018-02-20T01:32:56.687Z,38.6
2018-02-20T01:33:56.700Z,38.5
2018-02-20T01:34:56.411Z,38.5
2018-02-20T01:35:56.645Z,38.6
2018-02-20T01:36:56.372Z,38.6
2018-02-20T01:37:56.600Z,38.6
2018-02-20T01:38:56.758Z,38.5
2018-02-20T01:39:56.011Z,38.5
2018-02-20T01:40:56.061Z,38.5
2018-02-20T01:41:56.186Z,38.5
2018-02-20T01:42:56.054Z,38.5
2018-02-20T01:43:56.020Z,38.6
2018-02-20T01:44:56.603Z,38.6
2018-02-20T01:45:55.644Z,38.6
2018-02-20T01:46:55.544Z,38.6
2018-02-20T01:47:56.582Z,38.6
2018-02-20T01:48:55.577Z,38.6
2018-02-20T01:49:55.604Z,38.6
2018-02-20T01:50:55.609Z,38.7
2018-02-20T01:51:55.681Z,38.7
2018-02-20T01:52:55.384Z,38.7
2018-02-20T01:53:55.337Z,38.7
2018-02-20T01:54:55.143Z,38.7
2018-02-20T01:55:55.903Z,38.7
2018-02-20T01:56:54.950Z,38.7
2018-02-20T01:57:55.067Z,38.7
2018-02-20T01:58:54.765Z,38.6
2018-02-20T01:59:55.036Z,38.6
2018-02-20T02:00:54.907Z,38.6
2018-02-20T02:01:55.022Z,38.7
2018-02-20T02:02:54.674Z,38.6
2018-02-20T02:03:54.720Z,38.7
2018-02-20T02:04:54.606Z,38.7
2018-02-20T02:05:54.756Z,38.7
2018-02-20T02:06:54.582Z,38.7
2018-02-20T02:07:54.583Z,38.7
2018-02-20T02:08:54.951Z,38.7
2018-02-20T02:09:54.250Z,38.7
2018-02-20T02:10:54.232Z,38.6
2018-02-20T02:11:54.268Z,38.6
2018-02-20T02:12:53.915Z,38.5
2018-02-20T02:13:54.220Z,38.6
2018-02-20T02:14:53.992Z,38.5
2018-02-20T02:15:54.381Z,38.4
2018-02-20T02:16:53.737Z,38.4
2018-02-20T02:17:54.095Z,38.4
2018-02-20T02:18:53.567Z,38.4
2018-02-20T02:19:53.317Z,38.5
2018-02-20T02:20:54.009Z,38.5
2018-02-20T02:21:53.382Z,38.6
2018-02-20T02:22:53.517Z,38.6
2018-02-20T02:23:53.425Z,38.5
2018-02-20T02:24:53.118Z,38.5
2018-02-20T02:25:53.273Z,38.4
2018-02-20T02:26:53.088Z,38.4
2018-02-20T02:27:53.296Z,38.4
2018-02-20T02:28:53.006Z,38.4
2018-02-20T02:29:52.934Z,38.4
2018-02-20T02:30:52.779Z,38.4
2018-02-20T02:31:53.106Z,38.3
2018-02-20T02:32:52.384Z,38.3
2018-02-20T02:33:52.738Z,38.4
2018-02-20T02:34:52.729Z,38.4
2018-02-20T02:35:52.525Z,38.4
2018-02-20T02:36:52.281Z,38.4
2018-02-20T02:37:52.008Z,38.5
2018-02-20T02:38:52.300Z,38.5
2018-02-20T02:39:52.697Z,38.5
2018-02-20T02:40:52.268Z,38.4
2018-02-20T02:41:52.445Z,38.4
2018-02-20T02:42:52.307Z,38.4
2018-02-20T02:43:51.968Z,38.4
2018-02-20T02:44:51.839Z,38.5
2018-02-20T02:45:52.092Z,38.6
2018-02-20T02:46:51.854Z,38.6
2018-02-20T02:47:51.912Z,38.5
2018-02-20T02:48:51.319Z,38.5
2018-02-20T02:49:51.637Z,38.5
2018-02-20T02:50:51.268Z,38.5
2018-02-20T02:51:51.582Z,38.5
2018-02-20T02:52:51.492Z,38.4
2018-02-20T02:53:52.029Z,38.5
2018-02-20T02:54:51.198Z,38.5
2018-02-20T02:55:51.361Z,38.5
2018-02-20T02:56:51.037Z,38.5
2018-02-20T02:57:50.883Z,38.4
2018-02-20T02:58:51.117Z,38.4
2018-02-20T02:59:51.042Z,38.4
2018-02-20T03:00:51.151Z,38.4
2018-02-20T03:01:50.910Z,38.4
2018-02-20T03:02:50.470Z,38.4
2018-02-20T03:03:50.512Z,38.4
2018-02-20T03:04:50.430Z,38.4
2018-02-20T03:05:50.840Z,38.4
2018-02-20T03:06:50.375Z,38.4
2018-02-20T03:07:50.605Z,38.4
2018-02-20T03:08:50.293Z,38.4
2018-02-20T03:09:49.979Z,38.4
2018-02-20T03:10:50.461Z,38.5
2018-02-20T03:11:50.095Z,38.5
2018-02-20T03:12:49.551Z,38.6
2018-02-20T03:13:49.893Z,38.6
2018-02-20T03:14:50.154Z,38.6
2018-02-20T03:15:49.982Z,38.6
2018-02-20T03:16:49.406Z,38.6
2018-02-20T03:17:49.688Z,38.6
2018-02-20T03:18:49.878Z,38.6
2018-02-20T03:19:49.384Z,38.6
2018-02-20T03:20:49.524Z,38.5
2018-02-20T03:21:49.363Z,38.6
2018-02-20T03:22:48.989Z,38.5
2018-02-20T03:23:49.229Z,38.5
2018-02-20T03:24:49.031Z,38.5
2018-02-20T03:25:49.362Z,38.5
2018-02-20T03:26:49.658Z,38.4
2018-02-20T03:27:48.694Z,38.5
2018-02-20T03:28:49.239Z,38.4
2018-02-20T03:29:49.226Z,38.4
2018-02-20T03:30:48.366Z,38.4
2018-02-20T03:31:48.655Z,38.4
2018-02-20T03:32:48.509Z,38.4
2018-02-20T03:33:48.260Z,38.4
2018-02-20T03:34:49.039Z,38.4
2018-02-20T03:35:48.172Z,38.4
2018-02-20T03:36:48.516Z,38.4
2018-02-20T03:37:48.111Z,38.3
2018-02-20T03:38:47.859Z,38.3
2018-02-20T03:39:47.901Z,38.4
2018-02-20T03:40:47.980Z,38.4
2018-02-20T03:41:48.102Z,38.3
2018-02-20T03:42:48.157Z,38.3
2018-02-20T03:43:47.997Z,38.3
2018-02-20T03:44:47.664Z,38.3
2018-02-20T03:45:47.955Z,38.3
2018-02-20T03:46:47.882Z,38.4
2018-02-20T03:47:47.591Z,38.3
2018-02-20T03:48:47.181Z,38.3
2018-02-20T03:49:47.539Z,38.3
2018-02-20T03:50:47.952Z,38.4
2018-02-20T03:51:47.555Z,38.4
2018-02-20T03:52:47.065Z,38.4
2018-02-20T03:53:48.017Z,38.4
2018-02-20T03:54:46.955Z,38.4
2018-02-20T03:55:47.196Z,38.4
2018-02-20T03:56:47.114Z,38.4
2018-02-20T03:57:47.009Z,38.4
2018-02-20T03:58:46.562Z,38.4
2018-02-20T03:59:46.858Z,38.4
2018-02-20T04:00:47.060Z,38.4
2018-02-20T04:01:46.693Z,38.5
2018-02-20T04:02:46.477Z,38.5
2018-02-20T04:03:46.372Z,38.4
2018-02-20T04:04:46.229Z,38.4
2018-02-20T04:05:46.762Z,38.5
2018-02-20T04:06:47.318Z,38.6
2018-02-20T04:07:46.418Z,38.6
2018-02-20T04:08:45.851Z,38.6
2018-02-20T04:09:45.975Z,38.6
2018-02-20T04:10:45.859Z,38.6
2018-02-20T04:11:45.861Z,38.6
2018-02-20T04:12:46.852Z,38.6
2018-02-20T04:13:45.937Z,38.6
2018-02-20T04:14:45.452Z,38.6
2018-02-20T04:15:45.907Z,38.5
2018-02-20T04:16:45.764Z,38.6
2018-02-20T04:17:45.976Z,38.5
2018-02-20T04:18:45.428Z,38.6
2018-02-20T04:19:45.318Z,38.6
2018-02-20T04:20:45.578Z,38.6
2018-02-20T04:21:45.111Z,38.6
2018-02-20T04:22:44.990Z,38.5
2018-02-20T04:23:45.014Z,38.4
2018-02-20T04:24:44.779Z,38.3
2018-02-20T04:25:44.608Z,38.3
2018-02-20T04:26:44.838Z,38.2
2018-02-20T04:27:44.604Z,38.3
2018-02-20T04:28:44.687Z,38.3
2018-02-20T04:29:44.657Z,38.3
2018-02-20T04:30:44.368Z,38.4
2018-02-20T04:31:44.320Z,38.4
2018-02-20T04:32:44.595Z,38.4
2018-02-20T04:33:44.281Z,38.4
2018-02-20T04:34:44.454Z,38.4
2018-02-20T04:35:43.898Z,38.5
2018-02-20T04:36:44.116Z,38.5
2018-02-20T04:37:44.252Z,38.4
2018-02-20T04:38:43.949Z,38.3
2018-02-20T04:39:44.578Z,38.2
2018-02-20T04:40:43.755Z,38.2
2018-02-20T04:41:44.258Z,38.3
2018-02-20T04:42:43.912Z,38.4
2018-02-20T04:43:43.862Z,38.4
2018-02-20T04:44:44.114Z,38.4
2018-02-20T04:45:43.379Z,38.4
2018-02-20T04:46:43.786Z,38.3
2018-02-20T04:47:43.553Z,38.3
2018-02-20T04:48:43.266Z,38.3
2018-02-20T04:49:43.169Z,38.3
2018-02-20T04:50:43.883Z,38.3
2018-02-20T04:51:43.423Z,38.3
2018-02-20T04:52:42.968Z,38.3
2018-02-20T04:53:42.721Z,38.2
2018-02-20T04:54:43.683Z,38.3
2018-02-20T04:55:42.750Z,38.3
2018-02-20T04:56:42.597Z,38.3
2018-02-20T04:57:42.581Z,38.2
2018-02-20T04:58:42.726Z,38.1
2018-02-20T04:59:42.613Z,38.1
2018-02-20T05:00:42.624Z,38.1
2018-02-20T05:01:42.804Z,38.1
2018-02-20T05:02:42.490Z,38.1
2018-02-20T05:03:43.027Z,38.1
2018-02-20T05:04:42.191Z,38.1
2018-02-20T05:05:42.233Z,38.1
2018-02-20T05:06:41.784Z,38.1
2018-02-20T05:07:41.931Z,38.1
2018-02-20T05:08:42.219Z,38.1
2018-02-20T05:09:41.915Z,38.1
2018-02-20T05:10:41.573Z,38.2
2018-02-20T05:11:41.825Z,38.2
2018-02-20T05:12:41.480Z,38.2
2018-02-20T05:13:41.640Z,38.2
2018-02-20T05:14:41.432Z,38.2
2018-02-20T05:15:41.309Z,38.2
2018-02-20T05:16:41.339Z,38.2
2018-02-20T05:17:41.562Z,38.1
2018-02-20T05:18:41.383Z,38.2
2018-02-20T05:19:41.009Z,38.1
2018-02-20T05:20:41.201Z,38
2018-02-20T05:21:41.216Z,38.1
2018-02-20T05:22:41.620Z,38
2018-02-20T05:23:40.893Z,38
2018-02-20T05:24:40.685Z,37.9
2018-02-20T05:25:40.629Z,37.9
2018-02-20T05:26:40.527Z,37.9
2018-02-20T05:27:41.034Z,37.8
2018-02-20T05:28:40.601Z,37.8
2018-02-20T05:29:40.404Z,37.8
2018-02-20T05:30:40.328Z,37.9
2018-02-20T05:31:40.888Z,37.8
2018-02-20T05:32:40.290Z,37.8
2018-02-20T05:33:40.318Z,37.8
2018-02-20T05:34:40.234Z,37.8
2018-02-20T05:35:40.181Z,37.8
2018-02-20T05:36:40.288Z,37.8
2018-02-20T05:37:40.474Z,37.7
2018-02-20T05:38:40.102Z,37.7
2018-02-20T05:39:39.899Z,37.7
2018-02-20T05:40:40.028Z,37.7
2018-02-20T05:41:39.500Z,37.7
2018-02-20T05:42:39.564Z,37.8
2018-02-20T05:43:39.359Z,37.8
2018-02-20T05:44:39.493Z,37.8
2018-02-20T05:45:39.169Z,37.8
2018-02-20T05:46:39.277Z,37.9
2018-02-20T05:47:39.024Z,37.9
2018-02-20T05:48:38.831Z,37.9
2018-02-20T05:49:39.054Z,37.9
2018-02-20T05:50:39.752Z,37.9
2018-02-20T05:51:39.072Z,38
2018-02-20T05:52:39.067Z,37.9
2018-02-20T05:53:39.171Z,37.9
2018-02-20T05:54:38.697Z,37.8
2018-02-20T05:55:38.798Z,37.9
2018-02-20T05:56:38.994Z,38
2018-02-20T05:57:38.521Z,38.1
2018-02-20T05:58:38.593Z,38.1
2018-02-20T05:59:38.495Z,38.1
2018-02-20T06:00:38.345Z,37.9
2018-02-20T06:01:38.485Z,37.9
2018-02-20T06:02:38.134Z,37.8
2018-02-20T06:03:38.489Z,37.8
2018-02-20T06:04:37.922Z,37.8
2018-02-20T06:05:37.891Z,37.9
2018-02-20T06:06:38.163Z,37.9
2018-02-20T06:07:37.697Z,37.9
2018-02-20T06:08:38.785Z,37.9
2018-02-20T06:09:38.391Z,37.9
2018-02-20T06:10:37.667Z,37.9
2018-02-20T06:11:37.403Z,37.9
2018-02-20T06:12:37.554Z,37.9
2018-02-20T06:13:37.281Z,37.9
2018-02-20T06:14:37.613Z,37.9
2018-02-20T06:15:37.245Z,37.9
2018-02-20T06:16:37.190Z,37.9
2018-02-20T06:17:36.980Z,37.9
2018-02-20T06:18:37.140Z,37.8
2018-02-20T06:19:36.876Z,37.9
2018-02-20T06:20:36.767Z,37.9
2018-02-20T06:21:36.756Z,37.9
2018-02-20T06:22:37.255Z,37.8
2018-02-20T06:23:36.868Z,37.8
2018-02-20T06:24:36.527Z,37.9
2018-02-20T06:25:36.444Z,37.9
2018-02-20T06:26:36.698Z,37.9
2018-02-20T06:27:36.725Z,37.9
2018-02-20T06:28:36.758Z,38
2018-02-20T06:29:36.497Z,38.1
2018-02-20T06:30:36.227Z,38
2018-02-20T06:31:36.374Z,38
2018-02-20T06:32:36.452Z,38.1
2018-02-20T06:33:36.021Z,38.1
2018-02-20T06:34:35.707Z,38.1
2018-02-20T06:35:36.061Z,38.1
2018-02-20T06:36:36.236Z,38.2
2018-02-20T06:37:35.840Z,38.1
2018-02-20T06:38:35.733Z,38.1
2018-02-20T06:39:36.040Z,38.1
2018-02-20T06:40:35.319Z,38.1
2018-02-20T06:41:35.620Z,38
2018-02-20T06:42:35.615Z,38
2018-02-20T06:43:35.740Z,38.1
2018-02-20T06:44:35.146Z,38.1
2018-02-20T06:45:35.348Z,38.1
2018-02-20T06:46:35.183Z,38.1
2018-02-20T06:47:34.917Z,38.1
2018-02-20T06:48:34.969Z,38.2
2018-02-20T06:49:35.350Z,38.2
2018-02-20T06:50:34.915Z,38.1
2018-02-20T06:51:34.764Z,38.1
2018-02-20T06:52:34.664Z,38.1
2018-02-20T06:53:34.522Z,38.1
2018-02-20T06:54:34.554Z,38.2
2018-02-20T06:55:35.205Z,38.2
2018-02-20T06:56:34.345Z,38.2
2018-02-20T06:57:34.686Z,38.1
2018-02-20T06:58:35.031Z,38.2
2018-02-20T06:59:34.308Z,38.3
2018-02-20T07:00:34.259Z,38.3
2018-02-20T07:01:34.253Z,38.3
2018-02-20T07:02:33.902Z,38.3
2018-02-20T07:03:34.215Z,38.3
2018-02-20T07:04:33.641Z,38.3
2018-02-20T07:05:33.668Z,38.4
2018-02-20T07:06:33.833Z,38.4
2018-02-20T07:07:33.848Z,38.4
2018-02-20T07:08:34.029Z,38.4
2018-02-20T07:09:34.030Z,38.4
2018-02-20T07:10:33.632Z,38.4
2018-02-20T07:11:33.516Z,38.4
2018-02-20T07:12:33.403Z,38.4
2018-02-20T07:13:33.824Z,38.4
2018-02-20T07:14:33.473Z,38.4
2018-02-20T07:15:33.467Z,38.5
2018-02-20T07:16:32.843Z,38.5
2018-02-20T07:17:33.086Z,38.5
2018-02-20T07:18:33.249Z,38.5
2018-02-20T07:19:32.619Z,38.6
2018-02-20T07:20:32.829Z,38.6
2018-02-20T07:21:33.034Z,38.5
2018-02-20T07:22:32.785Z,38.6
2018-02-20T07:23:32.555Z,38.6
2018-02-20T07:24:32.364Z,38.6
2018-02-20T07:25:32.601Z,38.6
2018-02-20T07:26:32.449Z,38.7
2018-02-20T07:27:32.617Z,38.8
2018-02-20T07:28:32.361Z,38.6
2018-02-20T07:29:32.208Z,38.6
2018-02-20T07:30:32.198Z,38.6
2018-02-20T07:31:32.318Z,38.6
2018-02-20T07:32:32.407Z,38.6
2018-02-20T07:33:31.975Z,38.6
2018-02-20T07:34:31.594Z,38.8
2018-02-20T07:35:31.773Z,38.8
2018-02-20T07:36:31.552Z,38.8
2018-02-20T07:37:31.561Z,38.7
2018-02-20T07:38:32.048Z,38.7
2018-02-20T07:39:31.462Z,38.7
2018-02-20T07:40:31.222Z,38.7
2018-02-20T07:41:31.824Z,38.6
2018-02-20T07:42:31.045Z,38.6
2018-02-20T07:43:31.068Z,38.5
2018-02-20T07:44:31.476Z,38.6
2018-02-20T07:45:31.151Z,38.8
2018-02-20T07:46:30.970Z,38.8
2018-02-20T07:47:31.104Z,38.8
2018-02-20T07:48:30.985Z,38.8
2018-02-20T07:49:31.044Z,38.8
2018-02-20T07:50:30.596Z,38.8
2018-02-20T07:51:30.441Z,38.8
2018-02-20T07:52:30.776Z,38.8
2018-02-20T07:53:30.973Z,38.7
2018-02-20T07:54:30.695Z,38.7
2018-02-20T07:55:31.105Z,38.7
2018-02-20T07:56:30.266Z,38.7
2018-02-20T07:57:30.548Z,38.7
2018-02-20T07:58:30.285Z,38.6
2018-02-20T07:59:30.404Z,38.6
2018-02-20T08:00:30.119Z,38.7
2018-02-20T08:01:29.918Z,38.8
2018-02-20T08:02:30.299Z,38.8
2018-02-20T08:03:29.709Z,38.8
2018-02-20T08:04:30.031Z,38.6
2018-02-20T08:05:30.197Z,38.6
2018-02-20T08:06:29.863Z,38.6
2018-02-20T08:07:30.084Z,38.8
2018-02-20T08:08:29.489Z,38.9
2018-02-20T08:09:29.952Z,39.1
2018-02-20T08:10:29.480Z,39.1
2018-02-20T08:11:29.359Z,39
2018-02-20T08:12:28.980Z,39
2018-02-20T08:13:29.475Z,39
2018-02-20T08:14:29.182Z,38.9
2018-02-20T08:15:29.642Z,38.9
2018-02-20T08:16:29.094Z,38.9
2018-02-20T08:17:29.085Z,38.9
2018-02-20T08:18:28.745Z,38.9
2018-02-20T08:19:28.775Z,38.9
2018-02-20T08:20:28.621Z,38.9
2018-02-20T08:21:28.539Z,38.9
2018-02-20T08:22:28.870Z,39
2018-02-20T08:23:28.433Z,39.1
2018-02-20T08:24:28.422Z,39.3
2018-02-20T08:25:28.222Z,39.3
2018-02-20T08:26:28.760Z,39.3
2018-02-20T08:27:28.137Z,39.3
2018-02-20T08:28:28.361Z,39.4
2018-02-20T08:29:27.962Z,39.4
2018-02-20T08:30:27.999Z,39.3
2018-02-20T08:31:28.036Z,39.2
2018-02-20T08:32:27.957Z,39.2
2018-02-20T08:33:28.025Z,39.3
2018-02-20T08:34:27.395Z,33.1
2018-02-20T08:35:27.826Z,28.2
2018-02-20T08:36:27.802Z,27
2018-02-20T08:37:27.628Z,28.1
2018-02-20T08:38:27.250Z,30.1
2018-02-20T08:39:27.457Z,25.4
2018-02-20T08:40:27.000Z,23.9
2018-02-20T08:41:27.376Z,23.8
2018-02-20T08:42:27.029Z,26.7
2018-02-20T08:43:27.347Z,28.5
2018-02-20T08:44:26.882Z,23.9
2018-02-20T08:45:27.196Z,22.8
2018-02-20T08:46:26.665Z,23.2
2018-02-20T08:47:27.273Z,27.9
2018-02-20T08:48:26.768Z,30.1
2018-02-20T08:49:27.258Z,31.5
2018-02-20T08:50:26.400Z,32.3
2018-02-20T08:51:26.227Z,32.7
2018-02-20T08:52:26.140Z,33.1
2018-02-20T08:53:26.354Z,33.4
2018-02-20T08:54:26.618Z,33.6
2018-02-20T08:55:26.353Z,33.6
2018-02-20T08:56:26.230Z,33.6
2018-02-20T08:57:26.525Z,33.7
2018-02-20T08:58:26.286Z,33.8
2018-02-20T08:59:25.805Z,33.7
2018-02-20T09:00:26.093Z,33.7
2018-02-20T09:01:25.935Z,33.8
2018-02-20T09:02:25.854Z,34.1
2018-02-20T09:03:25.655Z,34.6
2018-02-20T09:04:25.804Z,34.9
2018-02-20T09:05:25.533Z,35.1
2018-02-20T09:06:25.677Z,35.4
2018-02-20T09:07:25.249Z,35.7
2018-02-20T09:08:25.195Z,35.8
2018-02-20T09:09:25.152Z,35.9
2018-02-20T09:10:25.583Z,36.1
2018-02-20T09:11:25.222Z,36.3
2018-02-20T09:12:24.921Z,36.4
2018-02-20T09:13:25.628Z,36.6
2018-02-20T09:14:25.744Z,36.8
2018-02-20T09:15:24.709Z,36.8
2018-02-20T09:16:24.625Z,36.8
2018-02-20T09:17:24.539Z,36.8
2018-02-20T09:18:24.473Z,36.9
2018-02-20T09:19:25.307Z,37.3
2018-02-20T09:20:24.339Z,37.6
2018-02-20T09:21:24.954Z,38.1
2018-02-20T09:22:24.351Z,38.5
2018-02-20T09:23:24.051Z,38.9
2018-02-20T09:24:24.100Z,39.3
2018-02-20T09:25:24.103Z,39.6
2018-02-20T09:26:24.544Z,39.8
2018-02-20T09:27:23.753Z,40
2018-02-20T09:28:23.774Z,40.1
2018-02-20T09:29:23.985Z,40.2
2018-02-20T09:30:23.766Z,40.3
2018-02-20T09:31:24.330Z,37.8
2018-02-20T09:32:23.521Z,30.4
2018-02-20T09:33:23.689Z,28.1
2018-02-20T09:34:23.815Z,27.7
2018-02-20T09:35:23.200Z,30
2018-02-20T09:36:23.381Z,27.7
2018-02-20T09:37:23.856Z,24.5
2018-02-20T09:38:23.300Z,23.8
2018-02-20T09:39:22.905Z,25.5
2018-02-20T09:40:23.704Z,28.9
2018-02-20T09:41:23.005Z,25.9
2018-02-20T09:42:23.183Z,23.3
2018-02-20T09:43:23.296Z,22.7
2018-02-20T09:44:23.008Z,26.4
2018-02-20T09:45:22.567Z,29.8
2018-02-20T09:46:22.546Z,31.4
2018-02-20T09:47:22.550Z,32.6
2018-02-20T09:48:22.911Z,33.1
2018-02-20T09:49:22.342Z,33.4
2018-02-20T09:50:22.696Z,33.6
2018-02-20T09:51:22.677Z,33.8
2018-02-20T09:52:22.811Z,33.9
2018-02-20T09:53:22.057Z,34
2018-02-20T09:54:22.070Z,34.1
2018-02-20T09:55:22.292Z,34.2
2018-02-20T09:56:21.743Z,34.2
2018-02-20T09:57:22.383Z,34.2
2018-02-20T09:58:21.878Z,34.1
2018-02-20T09:59:22.010Z,34.4
2018-02-20T10:00:22.172Z,34.8
2018-02-20T10:01:21.696Z,35.3
2018-02-20T10:02:21.904Z,35.6
2018-02-20T10:03:21.669Z,35.9
2018-02-20T10:04:21.626Z,36.1
2018-02-20T10:05:21.303Z,36.4
2018-02-20T10:06:21.844Z,36.6
2018-02-20T10:07:21.631Z,36.7
2018-02-20T10:08:21.150Z,36.9
2018-02-20T10:09:21.368Z,37
2018-02-20T10:10:20.879Z,37.1
2018-02-20T10:11:20.711Z,37.2
2018-02-20T10:12:20.868Z,37.2
2018-02-20T10:13:21.274Z,37.2
2018-02-20T10:14:20.608Z,37.2
2018-02-20T10:15:21.017Z,37.3
2018-02-20T10:16:20.884Z,37.4
2018-02-20T10:17:20.500Z,37.4
2018-02-20T10:18:20.348Z,38.1
2018-02-20T10:19:20.328Z,38.6
2018-02-20T10:20:20.728Z,39
2018-02-20T10:21:20.499Z,39.3
2018-02-20T10:22:20.072Z,39.4
2018-02-20T10:23:20.147Z,39.6
2018-02-20T10:24:20.426Z,39.6
2018-02-20T10:25:19.889Z,39.6
2018-02-20T10:26:20.125Z,39.8
2018-02-20T10:27:19.825Z,39.8
2018-02-20T10:28:19.762Z,40
2018-02-20T10:29:19.686Z,40.1
2018-02-20T10:30:19.651Z,40.2
2018-02-20T10:31:19.634Z,38.6
2018-02-20T10:32:19.696Z,31.1
2018-02-20T10:33:19.606Z,28.2
2018-02-20T10:34:19.618Z,27.7
2018-02-20T10:35:19.462Z,29.8
2018-02-20T10:36:19.766Z,28.7
2018-02-20T10:37:19.232Z,24.5
2018-02-20T10:38:19.297Z,23.8
2018-02-20T10:39:18.894Z,24.9
2018-02-20T10:40:18.930Z,28.3
2018-02-20T10:41:19.236Z,26.7
2018-02-20T10:42:18.602Z,23.5
2018-02-20T10:43:18.751Z,22.9
2018-02-20T10:44:18.483Z,25.8
2018-02-20T10:45:18.579Z,29.6
2018-02-20T10:46:18.626Z,31.4
2018-02-20T10:47:18.638Z,32.8
2018-02-20T10:48:19.321Z,33.8
2018-02-20T10:49:18.465Z,34.4
2018-02-20T10:50:18.121Z,35.1
2018-02-20T10:51:18.398Z,35.7
2018-02-20T10:52:17.825Z,36.1
2018-02-20T10:53:18.248Z,36.3
2018-02-20T10:54:18.354Z,36.5
2018-02-20T10:55:18.061Z,36.7
2018-02-20T10:56:18.266Z,36.7
2018-02-20T10:57:17.885Z,36.9
2018-02-20T10:58:17.635Z,36.9
2018-02-20T10:59:18.058Z,37.3
2018-02-20T11:00:17.710Z,37.4
2018-02-20T11:01:17.389Z,37.1
2018-02-20T11:02:17.423Z,36.7
2018-02-20T11:03:17.687Z,36.4
2018-02-20T11:04:17.743Z,36.3
2018-02-20T11:05:17.107Z,36.2
2018-02-20T11:06:17.134Z,36.1
2018-02-20T11:07:17.567Z,36.2
2018-02-20T11:08:16.785Z,36.2
2018-02-20T11:09:17.464Z,36.3
2018-02-20T11:10:16.824Z,36.3
2018-02-20T11:11:16.897Z,36.3
2018-02-20T11:12:16.717Z,36.4
2018-02-20T11:13:16.511Z,36.4
2018-02-20T11:14:16.409Z,36.5
2018-02-20T11:15:16.261Z,36.5
2018-02-20T11:16:16.632Z,36.6
2018-02-20T11:17:16.471Z,36.8
2018-02-20T11:18:16.210Z,37.2
2018-02-20T11:19:16.853Z,37.8
2018-02-20T11:20:16.453Z,38.1
2018-02-20T11:21:16.151Z,38.4
2018-02-20T11:22:16.523Z,38.7
2018-02-20T11:23:15.870Z,38.8
2018-02-20T11:24:16.031Z,39
2018-02-20T11:25:16.280Z,39.1
2018-02-20T11:26:15.813Z,39.3
2018-02-20T11:27:16.251Z,39.3
2018-02-20T11:28:15.498Z,37.8
2018-02-20T11:29:15.592Z,30.3
2018-02-20T11:30:15.534Z,27.4
2018-02-20T11:31:15.212Z,26.9
2018-02-20T11:32:15.626Z,29.6
2018-02-20T11:33:15.312Z,29
2018-02-20T11:34:15.422Z,25
2018-02-20T11:35:15.510Z,24.3
2018-02-20T11:36:15.116Z,25.3
2018-02-20T11:37:14.787Z,28.5
2018-02-20T11:38:15.037Z,26.9
2018-02-20T11:39:14.881Z,24.1
2018-02-20T11:40:15.048Z,23.5
2018-02-20T11:41:14.817Z,26.2
2018-02-20T11:42:14.973Z,29.8
2018-02-20T11:43:14.734Z,31.6
2018-02-20T11:44:14.626Z,33.1
2018-02-20T11:45:14.603Z,33.9
2018-02-20T11:46:14.409Z,34.6
2018-02-20T11:47:14.379Z,35.3
2018-02-20T11:48:14.695Z,35.8
2018-02-20T11:49:14.269Z,36.1
2018-02-20T11:50:14.253Z,36.4
2018-02-20T11:51:14.696Z,36.6
2018-02-20T11:52:14.296Z,36.9
2018-02-20T11:53:14.055Z,37
2018-02-20T11:54:46.171Z,37.1
2018-02-20T11:55:13.430Z,37.1
2018-02-20T11:56:14.160Z,37.1
2018-02-20T11:57:13.459Z,37.4
2018-02-20T11:58:13.718Z,37.6
2018-02-20T11:59:13.629Z,37.6
2018-02-20T12:00:13.617Z,37.6
2018-02-20T12:01:13.078Z,37.6
2018-02-20T12:02:12.967Z,37.6
2018-02-20T12:03:13.066Z,37.6
2018-02-20T12:04:12.754Z,37.4
2018-02-20T12:05:13.057Z,37.4
2018-02-20T12:06:13.233Z,37.3
2018-02-20T12:07:13.159Z,37.4
2018-02-20T12:08:12.859Z,37.4
2018-02-20T12:09:12.645Z,37.4
2018-02-20T12:10:12.449Z,37.4
2018-02-20T12:11:12.956Z,37.4
2018-02-20T12:12:12.695Z,37.6
2018-02-20T12:13:12.031Z,37.6
2018-02-20T12:14:12.760Z,37.7
2018-02-20T12:15:12.938Z,37.6
2018-02-20T12:16:12.064Z,37.9
2018-02-20T12:17:12.013Z,38.5
2018-02-20T12:18:11.897Z,39
2018-02-20T12:19:11.930Z,39.4
2018-02-20T12:20:12.070Z,39.8
2018-02-20T12:21:11.461Z,39.9
2018-02-20T12:22:11.926Z,40
2018-02-20T12:23:11.988Z,40.1
2018-02-20T12:24:11.361Z,40.1
2018-02-20T12:25:11.426Z,40.1
2018-02-20T12:26:11.171Z,40
2018-02-20T12:27:11.583Z,40.1
2018-02-20T12:28:11.236Z,40
2018-02-20T12:29:11.011Z,39.5
2018-02-20T12:30:10.865Z,34.1
2018-02-20T12:31:10.950Z,27.9
2018-02-20T12:32:11.566Z,26.6
2018-02-20T12:33:10.849Z,27.9
2018-02-20T12:34:10.687Z,30.4
2018-02-20T12:35:10.677Z,26
2018-02-20T12:36:10.931Z,24.3
2018-02-20T12:37:10.446Z,24.1
2018-02-20T12:38:10.454Z,26.8
2018-02-20T12:39:10.168Z,29.1
2018-02-20T12:40:11.161Z,24.8
2018-02-20T12:41:10.130Z,23.6
2018-02-20T12:42:09.898Z,23.7
2018-02-20T12:43:10.761Z,28.3
2018-02-20T12:44:10.000Z,30.8
2018-02-20T12:45:09.826Z,32.6
2018-02-20T12:46:09.542Z,33.6
2018-02-20T12:47:09.532Z,34.4
2018-02-20T12:48:09.261Z,35.1
2018-02-20T12:49:09.469Z,35.6
2018-02-20T12:50:09.811Z,35.9
2018-02-20T12:51:09.395Z,36.2
2018-02-20T12:52:09.074Z,36.4
2018-02-20T12:53:09.246Z,36.4
2018-02-20T12:54:09.201Z,36.6
2018-02-20T12:55:09.183Z,36.6
2018-02-20T12:56:08.874Z,36.6
2018-02-20T12:57:09.408Z,36.8
2018-02-20T12:58:08.617Z,37.3
2018-02-20T12:59:08.551Z,37.4
2018-02-20T13:00:08.916Z,37.1
2018-02-20T13:01:08.834Z,36.9
2018-02-20T13:02:08.647Z,36.8
2018-02-20T13:03:08.087Z,36.8
2018-02-20T13:04:08.545Z,36.8
2018-02-20T13:05:08.232Z,36.8
2018-02-20T13:06:08.334Z,36.7
2018-02-20T13:07:08.382Z,36.7
2018-02-20T13:08:08.107Z,36.8
2018-02-20T13:09:08.245Z,37
2018-02-20T13:10:09.262Z,37.1
2018-02-20T13:11:07.650Z,37.2
2018-02-20T13:12:08.277Z,37.2
2018-02-20T13:13:07.375Z,37.3
2018-02-20T13:14:07.613Z,37.3
2018-02-20T13:15:07.548Z,37.3
2018-02-20T13:16:07.866Z,37.4
2018-02-20T13:17:07.498Z,37.9
2018-02-20T13:18:07.103Z,38.6
2018-02-20T13:19:07.586Z,39